Latest Weather Observations for Jandakot

IDW60901

Issued at 12:51 pm WST Monday 6 July 2015 (issued every 10 minutes, with the page automatically refreshed every 10 minutes)

About weather observations | Map of Perth area stations | Latest observations for Perth area | Other Formats
Station Details ID: 009172 Name: JANDAKOT AERO Lat: -32.10 Lon: 115.88 Height: 30.0 m
Data from the previous 72 hours. | See also: Recent months at Jandakot
Date/Time
WST
Tmp

°C
App
Tmp
°C
Dew
Point
°C
Rel
Hum
%
Delta-T

°C
Wind Press
QNH
hPa
Press
MSL
hPa
Rain
since
9 am
mm
Dir
 
Spd
km/h
Gust
km/h
Spd
kts
Gust
kts
06/12:30pm 18.7 17.1 13.8 73 2.8 N 15 19 8 10 1021.2 1021.2 -
06/12:00pm 18.2 15.0 13.0 71 2.9 N 22 26 12 14 1021.7 1021.7 -
06/11:30am 17.9 15.1 12.7 71 2.9 N 19 24 10 13 1022.1 1022.1 0.0
06/11:00am 16.9 13.4 12.2 74 2.6 N 22 26 12 14 1022.4 1022.4 0.0
06/10:30am 16.0 12.9 12.1 77 2.1 N 20 24 11 13 1022.8 1022.8 0.0
06/10:00am 15.2 12.7 12.3 83 1.6 NNE 17 20 9 11 1022.9 1022.9 0.0
06/09:30am 13.9 12.6 12.4 91 0.8 NNE 11 13 6 7 1022.8 1022.8 0.0
06/09:00am 12.4 11.2 11.6 95 0.4 NNE 9 13 5 7 1022.7 1022.7 2.8
06/08:30am 10.9 9.4 10.7 99 0.1 NNE 9 11 5 6 1022.4 1022.4 2.8
06/08:00am 9.8 8.5 9.8 100 0.0 N 7 9 4 5 1022.3 1022.3 2.8
06/07:30am 7.2 5.2 7.2 100 0.0 NE 7 9 4 5 1022.1 1022.1 2.8
06/07:00am 7.0 4.9 6.6 97 0.2 NNE 7 9 4 5 1021.9 1021.9 2.8
06/06:30am 7.1 5.1 7.1 100 0.0 NNE 7 9 4 5 1021.7 1021.7 2.8
06/06:00am 6.9 5.0 6.7 99 0.1 NE 6 9 3 5 1021.3 1021.3 2.8
06/05:30am 6.8 4.7 6.6 99 0.1 NNE 7 7 4 4 1021.4 1021.4 2.8
06/05:00am 7.0 5.0 7.0 100 0.0 N 7 7 4 4 1021.4 1021.4 2.6
06/04:30am 7.3 6.7 7.3 100 0.0 CALM 0 0 0 0 1021.4 1021.4 2.6
06/04:00am 8.4 6.9 8.4 100 0.0 NE 6 7 3 4 1021.3 1021.3 2.6
06/03:30am 8.5 7.0 8.3 99 0.1 NE 6 7 3 4 1021.3 1021.3 2.6
06/03:00am 8.2 6.4 8.0 99 0.1 NE 7 7 4 4 1021.4 1021.4 2.6
06/02:47am 8.1 6.3 8.1 100 0.0 NE 7 9 4 5 1021.4 1021.4 2.6
06/02:30am 8.6 7.1 8.4 99 0.1 NE 6 7 3 4 1021.6 1021.6 2.6
06/02:00am 8.5 6.8 8.3 99 0.1 ENE 7 9 4 5 1021.6 1021.6 2.6
06/01:47am 9.1 7.5 8.7 97 0.2 NE 7 7 4 4 1021.7 1021.7 2.6
06/01:30am 9.0 7.0 8.8 99 0.1 NE 9 9 5 5 1021.8 1021.8 2.6
06/01:00am 10.5 9.4 10.5 100 0.0 NNE 7 7 4 4 1021.9 1021.9 2.6
06/12:30am 11.6 10.6 11.0 96 0.3 NE 7 7 4 4 1021.9 1021.9 2.6
 
Date/Time
WST
Tmp

°C
App
Tmp
°C
Dew
Point
°C
Rel
Hum
%
Delta-T

°C
Wind Press
QNH
hPa
Press
MSL
hPa
Rain
since
9 am
mm
Dir
 
Spd
km/h
Gust
km/h
Spd
kts
Gust
kts
05/11:30pm 12.1 11.4 11.9 99 0.1 NE 7 7 4 4 1022.0 1022.0 2.6
05/11:00pm 12.4 11.9 12.0 97 0.2 NNE 6 7 3 4 1022.3 1022.3 2.6
05/10:30pm 11.0 9.9 10.6 97 0.2 NE 7 9 4 5 1022.3 1022.3 2.6
05/10:00pm 11.1 10.2 10.7 97 0.2 NE 6 6 3 3 1022.3 1022.3 2.6
05/09:30pm 11.6 10.9 11.4 99 0.1 NE 6 6 3 3 1022.3 1022.3 2.6
05/09:00pm 12.8 13.6 12.4 97 0.2 CALM 0 0 0 0 1022.3 1022.3 2.6
05/08:30pm 14.0 13.8 13.5 97 0.3 NE 7 9 4 5 1022.3 1022.3 2.6
05/08:00pm 14.6 15.9 14.1 97 0.3 CALM 0 0 0 0 1022.3 1022.3 2.6
05/07:30pm 14.9 16.2 14.2 96 0.4 CALM 0 6 0 3 1022.2 1022.2 2.6
05/07:00pm 15.1 16.5 14.4 96 0.4 CALM 0 0 0 0 1022.0 1022.0 2.6
05/06:30pm 15.2 16.6 14.3 94 0.5 CALM 0 0 0 0 1021.7 1021.7 2.6
05/06:00pm 15.4 16.7 14.0 91 0.8 CALM 0 2 0 1 1021.4 1021.4 2.6
05/05:30pm 15.4 15.9 14.0 91 0.8 NNE 4 7 2 4 1021.2 1021.2 2.6
05/05:00pm 15.3 15.1 13.7 90 0.9 WSW 7 13 4 7 1021.0 1021.0 2.6
05/04:30pm 15.4 13.8 13.8 90 0.9 NW 15 20 8 11 1021.1 1021.1 2.6
05/04:00pm 15.9 14.0 14.3 90 0.9 NNW 17 24 9 13 1021.1 1021.1 2.6
05/03:30pm 17.2 16.2 14.6 85 1.5 NNW 13 17 7 9 1020.9 1020.9 2.0
05/03:00pm 16.6 16.6 14.3 86 1.3 N 7 11 4 6 1020.7 1020.7 2.0
05/02:34pm 16.1 15.5 14.7 91 0.8 N 11 13 6 7 1020.9 1020.9 2.0
05/02:30pm 16.0 15.5 14.8 93 0.7 N 11 13 6 7 1020.9 1020.9 2.0
05/02:00pm 15.9 14.9 14.7 93 0.7 NW 13 17 7 9 1021.0 1021.0 2.0
05/01:36pm 16.7 16.9 14.8 88 1.1 W 7 9 4 5 1021.0 1021.0 1.2
05/01:30pm 16.6 16.7 14.5 87 1.2 WNW 7 9 4 5 1021.0 1021.0 1.2
05/01:19pm 16.7 17.6 15.0 90 1.0 WNW 4 11 2 6 1021.0 1021.0 1.2
05/01:00pm 16.1 16.9 14.7 91 0.8 SW 4 9 2 5 1021.2 1021.2 1.2
05/12:45pm 16.0 16.9 15.0 94 0.6 SSE 4 7 2 4 1021.3 1021.3 1.0
05/12:30pm 15.7 15.9 14.6 93 0.6 SSW 7 11 4 6 1021.5 1021.5 1.0
05/12:00pm 16.5 15.6 14.9 90 0.9 SW 13 17 7 9 1021.9 1021.9 0.0
05/11:30am 16.9 17.4 13.9 82 1.7 SE 4 9 2 5 1022.0 1022.0 0.0
05/11:00am 15.9 16.3 13.6 86 1.3 NNE 4 7 2 4 1022.3 1022.3 0.0
05/10:30am 15.4 16.3 14.0 91 0.8 NNW 2 7 1 4 1022.5 1022.5 0.0
05/10:02am 14.7 14.7 14.2 97 0.3 NE 7 9 4 5 1022.5 1022.5 0.0
05/10:00am 14.7 14.9 14.3 97 0.2 NNE 6 9 3 5 1022.5 1022.5 0.0
05/09:30am 13.6 13.3 13.4 99 0.1 ENE 7 9 4 5 1022.3 1022.3 0.0
05/09:00am 13.0 11.4 12.8 99 0.1 NNE 13 15 7 8 1022.1 1022.1 5.4
05/08:30am 12.5 10.8 12.3 99 0.1 NNE 13 17 7 9 1022.0 1022.0 5.4
05/08:00am 12.2 11.2 12.2 100 0.0 N 9 13 5 7 1022.1 1022.1 5.4
05/07:30am 12.0 10.5 12.0 100 0.0 NNE 11 13 6 7 1021.8 1021.8 5.4
05/07:02am 11.6 10.8 11.6 100 0.0 NE 7 11 4 6 1021.5 1021.5 5.4
05/07:00am 11.6 10.9 11.4 99 0.1 NE 6 9 3 5 1021.5 1021.5 5.4
05/06:30am 11.9 10.7 11.7 99 0.1 N 9 13 5 7 1021.3 1021.3 5.4
05/06:19am 11.8 10.6 11.6 99 0.1 ENE 9 11 5 6 1021.1 1021.1 5.4
05/06:00am 11.7 11.9 11.7 100 0.0 N 2 6 1 3 1021.3 1021.3 5.2
05/05:30am 11.4 11.5 11.4 100 0.0 NNE 2 7 1 4 1021.0 1021.0 5.2
05/05:00am 11.1 9.8 11.1 100 0.0 NNE 9 13 5 7 1020.9 1020.9 5.2
05/04:30am 10.9 10.1 10.9 100 0.0 NNE 6 7 3 4 1021.0 1021.0 5.2
05/04:00am 11.4 10.7 11.4 100 0.0 NNE 6 7 3 4 1021.1 1021.1 5.2
05/03:30am 11.5 11.9 11.1 97 0.2 CALM 0 0 0 0 1021.2 1021.2 5.2
05/03:00am 11.7 11.4 11.5 99 0.1 NNE 4 7 2 4 1021.2 1021.2 5.2
05/02:30am 12.4 12.7 12.2 99 0.1 NNE 2 6 1 3 1021.3 1021.3 5.2
05/02:00am 12.9 13.7 12.7 99 0.1 CALM 0 2 0 1 1021.4 1021.4 5.0
05/01:30am 13.7 13.6 13.3 97 0.2 NE 6 7 3 4 1021.3 1021.3 5.0
05/01:15am 13.4 13.1 13.2 99 0.1 NE 7 9 4 5 1021.4 1021.4 5.0
05/01:00am 13.9 13.7 13.7 99 0.1 NE 7 9 4 5 1021.5 1021.5 5.0
05/12:30am 14.6 15.3 14.4 99 0.1 NE 4 9 2 5 1021.8 1021.8 5.0
05/12:00am 14.5 14.2 14.3 99 0.1 NE 9 11 5 6 1021.7 1021.7 4.2
 
Date/Time
WST
Tmp

°C
App
Tmp
°C
Dew
Point
°C
Rel
Hum
%
Delta-T

°C
Wind Press
QNH
hPa
Press
MSL
hPa
Rain
since
9 am
mm
Dir
 
Spd
km/h
Gust
km/h
Spd
kts
Gust
kts
04/11:30pm 14.7 14.0 14.3 97 0.2 NNE 11 13 6 7 1021.9 1021.9 3.4
04/11:00pm 14.6 15.6 14.2 97 0.2 NNW 2 9 1 5 1022.0 1022.0 3.4
04/10:30pm 13.4 14.3 12.8 96 0.3 CALM 0 0 0 0 1022.0 1022.0 2.4
04/10:00pm 14.1 14.8 13.4 96 0.4 SSE 2 7 1 4 1022.1 1022.1 2.4
04/09:30pm 14.6 15.8 13.7 94 0.5 CALM 0 0 0 0 1022.1 1022.1 2.4
04/09:00pm 15.2 15.6 14.7 97 0.3 SW 6 11 3 6 1022.3 1022.3 2.4
04/08:30pm 15.3 16.8 14.6 96 0.4 CALM 0 4 0 2 1022.1 1022.1 2.4
04/08:00pm 15.1 15.8 14.6 97 0.3 NE 4 13 2 7 1022.1 1022.1 2.4
04/07:30pm 14.6 15.0 13.7 94 0.5 SE 4 7 2 4 1021.8 1021.8 2.4
04/07:00pm 15.8 16.0 14.2 90 0.9 SSW 6 9 3 5 1021.8 1021.8 2.4
04/06:30pm 16.6 17.0 15.4 93 0.7 WNW 7 11 4 6 1021.7 1021.7 2.4
04/06:00pm 16.7 18.4 15.1 90 0.9 CALM 0 9 0 5 1021.5 1021.5 1.6
04/05:30pm 16.9 18.0 14.5 86 1.4 W 2 6 1 3 1021.4 1021.4 1.6
04/05:00pm 17.8 17.8 14.1 79 2.1 W 7 9 4 5 1021.4 1021.4 1.6
04/04:30pm 18.5 18.0 13.8 74 2.7 WSW 9 13 5 7 1021.4 1021.4 1.6
04/04:00pm 18.4 17.4 14.6 78 2.2 SW 13 15 7 8 1021.4 1021.4 1.6
04/03:30pm 18.8 17.1 14.7 77 2.4 WSW 17 22 9 12 1021.3 1021.3 1.6
04/03:00pm 18.6 15.9 14.6 77 2.3 WSW 22 30 12 16 1021.3 1021.3 1.6
04/02:30pm 19.0 16.6 13.9 72 2.9 WSW 19 26 10 14 1021.1 1021.1 1.6
04/02:00pm 19.0 17.5 15.2 78 2.2 W 17 28 9 15 1021.1 1021.1 1.6
04/01:30pm 19.4 17.1 14.0 71 3.1 W 19 24 10 13 1021.1 1021.1 1.6
04/01:00pm 19.3 17.3 13.9 71 3.1 W 17 20 9 11 1021.4 1021.4 1.6
04/12:30pm 19.6 19.1 14.8 74 2.8 WNW 11 13 6 7 1021.8 1021.8 1.6
04/12:00pm 18.8 19.8 15.4 80 2.0 NW 4 7 2 4 1022.3 1022.3 1.6
04/11:37am 18.1 19.5 15.5 85 1.5 WSW 2 7 1 4 1022.6 1022.6 1.6
04/11:30am 18.0 19.6 16.0 88 1.2 WSW 2 7 1 4 1022.8 1022.8 1.6
04/11:07am 16.9 16.8 15.0 88 1.1 W 9 13 5 7 1023.1 1023.1 1.4
04/11:02am 17.3 17.6 14.9 86 1.4 WNW 7 13 4 7 1023.2 1023.2 0.4
04/11:00am 17.6 17.9 15.0 85 1.5 NW 7 13 4 7 1023.2 1023.2 0.0
04/10:30am 16.9 16.8 15.0 88 1.1 N 9 13 5 7 1023.4 1023.4 0.0
04/10:00am 16.1 15.6 14.9 93 0.7 NNE 11 15 6 8 1023.5 1023.5 0.0
04/09:30am 14.9 14.2 14.2 96 0.4 NNE 11 13 6 7 1023.4 1023.4 0.0
04/09:00am 13.8 12.8 13.4 97 0.2 NNE 11 15 6 8 1023.3 1023.3 0.2
04/08:30am 13.3 12.6 13.1 99 0.1 NNE 9 13 5 7 1023.2 1023.2 0.2
04/08:03am 13.2 12.4 13.0 99 0.1 NNE 9 13 5 7 1023.0 1023.0 0.2
04/08:00am 13.2 12.4 13.0 99 0.1 NNE 9 13 5 7 1023.0 1023.0 0.2
04/07:41am 13.1 12.4 13.1 100 0.0 N 9 11 5 6 1023.0 1023.0 0.2
04/07:39am 13.1 12.4 13.1 100 0.0 N 9 11 5 6 1023.0 1023.0 0.2
04/07:30am 13.2 12.5 13.1 99 0.1 NNE 9 13 5 7 1022.9 1022.9 0.2
04/07:00am 12.9 12.1 12.9 100 0.0 NNE 9 13 5 7 1022.8 1022.8 0.2
04/06:30am 13.1 11.9 12.9 99 0.1 NNE 11 15 6 8 1022.6 1022.6 0.2
04/06:00am 12.8 11.2 12.8 100 0.0 NNE 13 17 7 9 1022.5 1022.5 0.2
04/05:30am 13.0 12.6 13.0 100 0.0 N 7 11 4 6 1022.4 1022.4 0.2
04/05:00am 12.9 11.7 12.9 100 0.0 NNE 11 13 6 7 1022.2 1022.2 0.2
04/04:30am 12.7 11.1 12.7 100 0.0 NNE 13 15 7 8 1022.2 1022.2 0.2
04/04:00am 12.3 11.3 12.3 100 0.0 NNE 9 11 5 6 1022.4 1022.4 0.2
04/03:30am 12.0 11.4 11.8 99 0.1 NE 6 9 3 5 1022.6 1022.6 0.2
04/03:00am 12.2 11.2 12.2 100 0.0 NE 9 11 5 6 1022.7 1022.7 0.2
04/02:30am 11.4 10.1 11.2 99 0.1 NNE 9 11 5 6 1022.8 1022.8 0.0
04/02:00am 10.1 9.7 9.7 97 0.2 NE 2 9 1 5 1022.9 1022.9 0.0
04/01:30am 9.0 8.7 8.8 99 0.1 CALM 0 0 0 0 1023.0 1023.0 0.0
04/01:00am 8.5 8.1 8.1 97 0.2 CALM 0 0 0 0 1023.1 1023.1 0.0
04/12:54am 8.5 8.1 8.3 99 0.1 CALM 0 0 0 0 1023.2 1023.2 0.0
04/12:30am 9.9 9.4 9.5 97 0.2 NE 2 6 1 3 1023.3 1023.3 0.0
04/12:00am 9.5 8.9 9.1 97 0.2 ENE 2 9 1 5 1023.3 1023.3 0.0
 
Date/Time
WST
Tmp

°C
App
Tmp
°C
Dew
Point
°C
Rel
Hum
%
Delta-T

°C
Wind Press
QNH
hPa
Press
MSL
hPa
Rain
since
9 am
mm
Dir
 
Spd
km/h
Gust
km/h
Spd
kts
Gust
kts
03/11:30pm 9.4 8.0 9.0 97 0.2 ENE 6 7 3 4 1023.5 1023.5 0.0
03/11:00pm 10.0 8.7 9.2 95 0.4 NE 6 7 3 4 1023.5 1023.5 0.0
03/10:30pm 10.6 10.7 10.2 97 0.2 CALM 0 0 0 0 1023.5 1023.5 0.0
03/10:00pm 11.0 11.1 10.2 95 0.4 CALM 0 0 0 0 1023.5 1023.5 0.0
03/09:30pm 11.5 11.7 10.7 95 0.4 CALM 0 0 0 0 1023.5 1023.5 0.0
03/09:00pm 12.5 13.0 11.7 95 0.4 CALM 0 0 0 0 1023.5 1023.5 0.0
03/08:30pm 12.7 13.4 12.1 96 0.3 CALM 0 0 0 0 1023.4 1023.4 0.0
03/08:00pm 12.3 12.8 11.7 96 0.3 CALM 0 0 0 0 1023.3 1023.3 0.0
03/07:30pm 12.6 12.8 11.7 94 0.5 SE 2 6 1 3 1023.3 1023.3 0.0
03/07:00pm 13.4 14.1 12.3 93 0.6 CALM 0 0 0 0 1023.2 1023.2 0.0
03/06:30pm 14.5 15.6 13.4 93 0.6 CALM 0 0 0 0 1023.1 1023.1 0.0
03/06:00pm 15.5 16.4 14.1 91 0.8 W 2 6 1 3 1022.9 1022.9 0.0
03/05:30pm 17.6 17.8 14.8 84 1.6 WSW 7 9 4 5 1022.7 1022.7 0.0
03/05:00pm 18.9 18.8 14.9 77 2.3 W 9 13 5 7 1022.7 1022.7 0.0
03/04:30pm 19.4 18.4 14.6 74 2.8 WSW 13 17 7 9 1022.5 1022.5 0.0
03/04:00pm 20.3 18.9 14.6 70 3.3 WSW 15 19 8 10 1022.2 1022.2 0.0
03/03:30pm 20.5 19.0 14.1 66 3.7 WSW 15 19 8 10 1022.0 1022.0 0.0
03/03:00pm 20.5 18.6 14.1 66 3.7 W 17 20 9 11 1021.8 1021.8 0.0
03/02:30pm 21.1 19.7 14.4 65 3.9 W 15 20 8 11 1021.8 1021.8 0.0
03/02:00pm 21.1 19.1 14.0 64 4.1 W 17 20 9 11 1021.9 1021.9 0.0
03/01:30pm 20.4 19.3 14.4 68 3.5 WSW 13 17 7 9 1022.0 1022.0 0.0
03/01:00pm 21.2 21.4 14.7 66 3.8 W 7 9 4 5 1022.0 1022.0 0.0

Latest Capital City Observations: Canberra | Sydney | Melbourne | Brisbane | Adelaide | Perth | Hobart | Darwin

Other Formats:

Comma delimited format used in spreadsheet applications
http://www.bom.gov.au/fwo/IDW60901/IDW60901.94609.axf

JavaScript Object Notation format (JSON) in row-major order
http://www.bom.gov.au/fwo/IDW60901/IDW60901.94609.json